Overview Statistics Trail Chart Weather Telemetry Raw packets
 

This is the latest recevied weather packets stored in our database for station/object Wangen. If no packets are shown the sender has not sent any weather packets the latest 10 day(s).

<< 16 17 18 19 >>
Time Temp. Humidity Pressure Rain* Wind** Luminosity Snow
1787770931 23.33° C 76% 1012.3 hPa 0 mm - - -
1787769131 25° C 72% 1011.9 hPa 0 mm - - -
1787767330 26.11° C 66% 1012.2 hPa 0 mm - - -
1787765530 26.67° C 57% 1012.1 hPa 0 mm - - -
1787763731 27.78° C 55% 1012.2 hPa 0 mm - - -
1787761931 28.33° C 52% 1012.3 hPa 0 mm - - -
1787760131 28.33° C 51% 1012.3 hPa 0 mm - - -
1787758331 28.89° C 50% 1012.4 hPa 0 mm - - -
1787756530 28.89° C 50% 1012.7 hPa 0 mm - - -
1787754731 29.44° C 49% 1013 hPa 0 mm - - -
1787752930 27.78° C 53% 1013.4 hPa 0 mm - - -
1787751131 27.78° C 53% 1013.9 hPa 0 mm - - -
1787749330 27.22° C 55% 1014.2 hPa 0 mm - - -
1787747533 27.22° C 55% 1014.1 hPa 0 mm - - -
1787745730 27.22° C 55% 1014.3 hPa 0 mm - - -
1787743931 27.22° C 57% 1014.3 hPa 0 mm - - -
1787742134 26.11° C 60% 1014.6 hPa 0 mm - - -
1787740331 25° C 63% 1014.8 hPa 0 mm - - -
1787738530 24.44° C 68% 1015.1 hPa 0 mm - - -
1787736730 22.78° C 77% 1015.3 hPa 0 mm - - -
1787734930 20.56° C 86% 1015.4 hPa 0 mm - - -

* Rain since midnight (hover to see other rain measurements)
** Current wind speed in m/s (hover to see current wind gust speed)